Latest Weather Observations for Tatura

IDV60801

Issued at 6:05 am EST Tuesday 29 July 2014 (issued every 30 minutes, with the page automatically refreshed every 10 minutes)

About weather observations | Map of weather stations | Latest weather observations for VIC | Other Formats
Station Details ID: 081049 Name: TATURA INST SUSTAINABLE AG Lat: -36.44 Lon: 145.27 Height: 114.0 m
Data from the previous 72 hours. | See also: Recent months at Tatura
Date/Time
EST
Temp
°C
App
Temp
°C
Dew
Point
Rel
Hum
%
Delta-T
°C
Wind Press
QNH
hPa
Press
MSL
hPa
Rain
since 9 am
mm
Dir
 
Spd
km/h
Gust
km/h
Spd
kts
Gust
kts
29/06:00am 5.7 1.8 3.4 85 1.0 NNE 13 17 7 9 - - 0.0
29/05:30am 5.4 1.4 3.1 85 1.0 NNE 13 15 7 8 - - 0.0
29/05:00am 5.1 1.1 2.8 85 0.9 NNE 13 15 7 8 - - 0.0
29/04:30am 5.1 1.4 2.6 84 1.0 NE 11 13 6 7 - - 0.0
29/04:00am 5.7 2.1 3.0 83 1.1 NNE 11 17 6 9 - - 0.0
29/03:30am 5.2 1.9 2.6 83 1.1 NNE 9 13 5 7 - - 0.0
29/03:00am 6.0 2.5 3.3 83 1.1 NNE 11 13 6 7 - - 0.0
29/02:30am 6.4 2.9 3.6 82 1.2 N 11 13 6 7 - - 0.0
29/02:00am 6.3 2.4 3.3 81 1.3 N 13 15 7 8 - - 0.0
29/01:30am 5.8 2.2 3.1 83 1.1 N 11 13 6 7 - - 0.0
29/01:00am 6.1 3.0 3.4 83 1.1 N 9 11 5 6 - - 0.0
29/12:30am 6.3 2.9 3.8 84 1.1 NNE 11 13 6 7 - - 0.0
29/12:00am 6.3 3.2 3.8 84 1.1 NNE 9 13 5 7 - - 0.0
 
Date/Time
EST
Temp
°C
App
Temp
°C
Dew
Point
Rel
Hum
%
Delta-T
°C
Wind Press
QNH
hPa
Press
MSL
hPa
Rain
since 9 am
mm
Dir
 
Spd
km/h
Gust
km/h
Spd
kts
Gust
kts
28/11:30pm 6.7 4.1 4.0 83 1.2 NNE 7 11 4 6 - - 0.0
28/11:00pm 7.2 4.2 4.0 80 1.4 NNE 9 11 5 6 - - 0.0
28/10:30pm 7.7 4.7 4.1 78 1.6 NNE 9 13 5 7 - - 0.0
28/10:00pm 8.3 5.8 4.5 77 1.7 NNE 7 11 4 6 - - 0.0
28/09:30pm 8.7 7.6 4.9 77 1.7 CALM 0 0 0 0 - - 0.0
28/09:00pm 8.7 6.4 4.7 76 1.8 N 6 7 3 4 - - 0.0
28/08:30pm 9.1 6.2 4.9 75 1.9 N 9 11 5 6 - - 0.0
28/08:00pm 9.6 6.8 5.0 73 2.1 N 9 11 5 6 - - 0.0
28/07:30pm 10.7 7.6 5.5 70 2.4 N 11 17 6 9 - - 0.0
28/07:00pm 11.3 7.8 5.6 68 2.7 N 13 17 7 9 - - 0.0
28/06:30pm 11.8 9.0 6.9 72 2.4 N 11 15 6 8 - - 0.0
28/06:00pm 11.3 8.4 6.6 73 2.2 N 11 13 6 7 - - 0.0
28/05:30pm 11.9 9.8 6.8 71 2.4 N 7 9 4 5 - - 0.0
28/05:00pm 13.4 10.8 7.6 68 2.9 N 11 13 6 7 - - 0.0
28/04:30pm 13.8 10.4 7.6 66 3.1 NNE 15 19 8 10 - - 0.0
28/04:00pm 15.1 12.1 7.9 62 3.6 NE 13 17 7 9 - - 0.0
28/03:30pm 15.0 11.1 7.3 60 3.8 N 17 22 9 12 - - 0.0
28/03:00pm 15.0 10.0 6.6 57 4.1 N 22 30 12 16 - - 0.0
28/02:30pm 15.0 10.8 7.5 61 3.7 NNE 19 28 10 15 - - 0.0
28/02:00pm 14.7 10.6 8.0 64 3.4 NE 19 24 10 13 - - 0.0
28/01:30pm 14.0 10.1 7.1 63 3.4 NNE 17 24 9 13 - - 0.0
28/01:00pm 13.5 9.1 6.6 63 3.3 NE 19 24 10 13 - - 0.0
28/12:30pm 12.7 8.7 6.5 66 3.0 NE 17 24 9 13 - - 0.0
28/12:00pm 11.5 7.7 5.6 67 2.7 NE 15 20 8 11 - - 0.0
28/11:30am 11.4 7.6 5.7 68 2.7 NE 15 20 8 11 - - 0.0
28/11:00am 10.7 6.5 5.5 70 2.4 NE 17 22 9 12 - - 0.0
28/10:30am 9.9 5.6 5.1 72 2.2 NE 17 22 9 12 - - 0.0
28/10:00am 9.3 4.9 4.9 74 2.0 NE 17 22 9 12 - - 0.0
28/09:30am 8.4 4.7 4.6 77 1.7 NE 13 19 7 10 - - 0.0
28/09:00am 7.4 3.3 4.4 81 1.3 ENE 15 20 8 11 - - 0.2
28/08:30am 6.4 2.6 4.1 85 1.0 ENE 13 19 7 10 - - 0.0
28/08:00am 5.3 1.4 3.3 87 0.8 ENE 13 17 7 9 - - 0.0
28/07:30am 4.6 1.0 2.8 88 0.7 ENE 11 15 6 8 - - 0.0
28/07:00am 4.5 0.8 2.5 87 0.8 ENE 11 17 6 9 - - 0.0
28/06:30am 5.0 1.4 3.0 87 0.8 ENE 11 19 6 10 - - 0.0
28/06:00am 5.3 1.8 3.3 87 0.8 NE 11 17 6 9 - - 0.0
28/05:30am 5.6 1.7 3.6 87 0.8 NE 13 17 7 9 - - 0.0
28/05:00am 5.6 1.8 3.8 88 0.8 ENE 13 15 7 8 - - 0.0
28/04:30am 5.6 1.8 3.8 88 0.8 NE 13 17 7 9 - - 0.0
28/04:00am 5.9 2.1 4.1 88 0.8 NE 13 17 7 9 - - 0.0
28/03:30am 6.3 2.2 4.5 88 0.8 NNE 15 19 8 10 - - 0.0
28/03:00am 6.6 2.2 4.8 88 0.8 NE 17 20 9 11 - - 0.0
28/02:30am 6.9 3.0 5.2 89 0.8 NNE 15 20 8 11 - - 0.0
28/02:00am 7.0 3.5 5.3 89 0.8 NNE 13 19 7 10 - - 0.0
28/01:30am 7.0 3.1 5.5 90 0.7 NE 15 19 8 10 - - 0.0
28/01:00am 7.2 3.4 5.7 90 0.7 NE 15 20 8 11 - - 0.0
28/12:30am 7.4 3.6 5.9 90 0.7 NE 15 20 8 11 - - 0.0
28/12:00am 7.6 3.9 6.1 90 0.7 NE 15 20 8 11 - - 0.0
 
Date/Time
EST
Temp
°C
App
Temp
°C
Dew
Point
Rel
Hum
%
Delta-T
°C
Wind Press
QNH
hPa
Press
MSL
hPa
Rain
since 9 am
mm
Dir
 
Spd
km/h
Gust
km/h
Spd
kts
Gust
kts
27/11:30pm 7.6 3.9 6.2 91 0.6 NE 15 19 8 10 - - 0.0
27/11:00pm 7.7 4.4 6.2 90 0.7 NE 13 17 7 9 - - 0.0
27/10:30pm 8.0 4.7 6.5 90 0.7 NE 13 17 7 9 - - 0.0
27/10:00pm 8.3 5.1 6.8 90 0.7 NE 13 20 7 11 - - 0.0
27/09:30pm 8.6 5.4 6.9 89 0.8 NNE 13 17 7 9 - - 0.0
27/09:00pm 9.0 5.1 7.3 89 0.8 NE 17 22 9 12 - - 0.0
27/08:30pm 9.2 5.4 7.5 89 0.8 NE 17 20 9 11 - - 0.0
27/08:00pm 9.5 6.1 7.6 88 0.9 NE 15 20 8 11 - - 0.0
27/07:30pm 9.8 6.5 7.9 88 0.9 NE 15 20 8 11 - - 0.0
27/07:00pm 10.2 6.9 8.1 87 1.0 NE 15 20 8 11 - - 0.0
27/06:30pm 10.6 8.1 8.2 85 1.2 NE 11 15 6 8 - - 0.0
27/06:00pm 11.0 9.0 6.9 76 2.0 NNE 7 9 4 5 - - 0.0
27/05:30pm 11.2 9.1 6.7 74 2.1 N 7 9 4 5 - - 0.0
27/05:00pm 12.3 10.0 7.4 72 2.4 N 9 13 5 7 - - 0.0
27/04:30pm 12.8 10.6 7.7 71 2.5 N 9 11 5 6 - - 0.0
27/04:00pm 13.5 10.8 7.3 66 3.0 N 11 17 6 9 - - 0.0
27/03:30pm 14.1 10.9 6.9 62 3.5 NNW 13 19 7 10 - - 0.0
27/03:00pm 14.3 10.5 7.4 63 3.4 NNW 17 24 9 13 - - 0.0
27/02:30pm 14.1 10.7 7.6 65 3.2 N 15 20 8 11 - - 0.0
27/02:00pm 14.8 11.1 7.8 63 3.5 NW 17 24 9 13 - - 0.0
27/01:30pm 14.7 11.5 8.6 67 3.1 NW 15 19 8 10 - - 0.0
27/01:00pm 14.4 11.2 8.4 67 3.0 NNW 15 26 8 14 - - 0.0
27/12:30pm 14.1 11.2 8.1 67 3.0 NNW 13 20 7 11 - - 0.0
27/12:00pm 13.6 11.2 8.7 72 2.5 NNW 11 17 6 9 - - 0.0
27/11:30am 12.7 11.2 10.6 87 1.1 N 9 13 5 7 - - 0.0
27/11:00am 12.0 10.7 9.2 83 1.4 N 6 9 3 5 - - 0.0
27/10:30am 10.3 10.1 9.1 92 0.6 CALM 0 2 0 1 - - 0.0
27/10:00am 9.0 8.5 7.9 93 0.5 CALM 0 0 0 0 - - 0.0
27/09:30am 7.1 6.2 6.2 94 0.4 CALM 0 0 0 0 - - 0.0
27/09:00am 4.5 3.1 3.5 93 0.4 CALM 0 0 0 0 - - 0.0
27/08:30am 2.7 1.0 1.7 93 0.4 CALM 0 0 0 0 - - 0.0
27/08:00am 1.4 -0.6 0.2 92 0.4 CALM 0 0 0 0 - - 0.0
27/07:30am 1.2 -0.8 0.2 93 0.4 CALM 0 0 0 0 - - 0.0
27/07:00am 1.0 -1.0 -0.1 92 0.4 CALM 0 0 0 0 - - 0.0
27/06:30am 1.2 -0.8 0.0 92 0.4 CALM 0 0 0 0 - - 0.0
27/06:00am 1.4 -0.6 0.2 92 0.4 CALM 0 0 0 0 - - 0.0
27/05:30am 1.6 -0.3 0.4 92 0.4 CALM 0 0 0 0 - - 0.0
27/05:00am 2.4 0.6 1.2 92 0.5 CALM 0 0 0 0 - - 0.0
27/04:30am 2.4 0.6 1.2 92 0.5 CALM 0 0 0 0 - - 0.0
27/04:00am 2.5 0.7 1.3 92 0.5 CALM 0 0 0 0 - - 0.0
27/03:30am 3.4 1.8 2.2 92 0.5 CALM 0 0 0 0 - - 0.0
27/03:00am 4.5 3.1 3.3 92 0.5 CALM 0 0 0 0 - - 0.0
27/02:30am 5.1 3.8 3.9 92 0.5 CALM 0 0 0 0 - - 0.0
27/02:00am 5.3 4.0 4.1 92 0.5 CALM 0 0 0 0 - - 0.0
27/01:30am 6.3 5.2 5.3 93 0.4 CALM 0 0 0 0 - - 0.0
27/01:00am 5.2 3.9 4.0 92 0.5 CALM 0 0 0 0 - - 0.0
27/12:30am 4.7 2.9 3.4 91 0.5 NW 2 6 1 3 - - 0.0
27/12:00am 5.5 3.5 4.3 92 0.5 WNW 4 7 2 4 - - 0.0
 
Date/Time
EST
Temp
°C
App
Temp
°C
Dew
Point
Rel
Hum
%
Delta-T
°C
Wind Press
QNH
hPa
Press
MSL
hPa
Rain
since 9 am
mm
Dir
 
Spd
km/h
Gust
km/h
Spd
kts
Gust
kts
26/11:30pm 5.8 3.3 4.6 92 0.5 W 7 7 4 4 - - 0.0
26/11:00pm 5.7 2.8 4.5 92 0.5 WNW 9 9 5 5 - - 0.0
26/10:30pm 5.6 3.0 4.2 91 0.6 W 7 7 4 4 - - 0.0
26/10:00pm 6.0 3.1 4.6 91 0.6 W 9 11 5 6 - - 0.0
26/09:30pm 5.5 2.5 4.2 91 0.6 W 9 9 5 5 - - 0.0
26/09:00pm 6.2 5.0 4.8 91 0.6 CALM 0 0 0 0 - - 0.0
26/08:30pm 7.3 6.4 5.9 91 0.6 CALM 0 0 0 0 - - 0.0
26/08:00pm 6.9 5.9 5.4 90 0.7 CALM 0 0 0 0 - - 0.0
26/07:30pm 8.3 7.6 6.8 90 0.7 CALM 0 0 0 0 - - 0.0
26/07:00pm 8.7 8.0 6.8 88 0.9 CALM 0 0 0 0 - - 0.0
26/06:30pm 9.4 7.7 7.5 88 0.9 WNW 6 7 3 4 - - 0.0
26/06:00pm 9.6 7.7 7.4 86 1.1 WNW 7 9 4 5 - - 0.0
26/05:30pm 10.4 8.7 7.5 82 1.4 NW 6 7 3 4 - - 0.0
26/05:00pm 11.2 9.1 8.2 82 1.5 NW 9 11 5 6 - - 0.0
26/04:30pm 12.6 10.2 8.5 76 2.0 WNW 11 15 6 8 - - 0.0
26/04:00pm 13.1 10.3 8.6 74 2.3 W 13 17 7 9 - - 0.0
26/03:30pm 13.1 10.7 8.8 75 2.2 WNW 11 13 6 7 - - 0.0
26/03:00pm 13.8 11.5 9.0 73 2.4 WNW 11 15 6 8 - - 0.0
26/02:30pm 13.7 10.8 8.3 70 2.7 WNW 13 19 7 10 - - 0.0
26/02:00pm 13.1 10.7 8.8 75 2.2 W 11 15 6 8 - - 0.0
26/01:30pm 12.5 10.9 8.8 78 1.9 WSW 7 9 4 5 - - 0.0
26/01:00pm 12.1 11.8 8.8 80 1.7 CALM 0 6 0 3 - - 0.0
26/12:30pm 11.6 10.1 9.0 84 1.3 SSW 7 11 4 6 - - 0.0
26/12:00pm 11.3 9.8 9.0 86 1.2 SW 7 11 4 6 - - 0.0
26/11:30am 10.9 8.9 8.8 87 1.0 SW 9 15 5 8 - - 0.0
26/11:00am 10.8 8.9 9.1 89 0.8 W 9 11 5 6 - - 0.0
26/10:30am 10.5 8.6 9.1 91 0.7 WNW 9 11 5 6 - - 0.0
26/10:00am 10.4 8.5 9.2 92 0.6 WNW 9 13 5 7 - - 0.0
26/09:30am 10.1 8.7 8.9 92 0.6 NW 6 13 3 7 - - 0.0
26/09:00am 9.7 9.4 8.5 92 0.6 CALM 0 0 0 0 - - 1.4
26/08:30am 9.2 8.7 8.0 92 0.6 CALM 0 0 0 0 - - 1.4
26/08:00am 8.8 8.2 7.6 92 0.6 CALM 0 0 0 0 - - 1.4
26/07:30am 8.8 8.2 7.6 92 0.6 CALM 0 0 0 0 - - 1.4
26/07:00am 8.7 8.1 7.5 92 0.6 CALM 0 0 0 0 - - 1.4
26/06:30am 8.6 8.0 7.4 92 0.6 CALM 0 0 0 0 - - 1.4

Other Formats:

Comma delimited format used in spreadsheet applications
http://www.bom.gov.au/fwo/IDV60801/IDV60801.95836.axf

JavaScript Object Notation format (JSON) in row-major order
http://www.bom.gov.au/fwo/IDV60801/IDV60801.95836.json